Time;durP1;ratioP1;P1;durP2;ratioP2;P2;SDS_P1;SDS_P2;PMS_P1;PMS_P2;Temp;Humidity;BMP_temperature;BMP_pressure;BME280_temperature;BME280_humidity;BME280_pressure;Samples;Min_cycle;Max_cycle;Signal;HPM_P1;HPM_P2
2022/04/09 00:00:10;;;;;;;4.05;0.90;;;22.40;75.70;;;;;;5048242;23;20061;-48
2022/04/09 00:02:12;;;;;;;5.13;1.27;;;22.40;75.80;;;;;;5037255;23;20041;-46
2022/04/09 00:04:14;;;;;;;3.53;1.10;;;22.40;75.80;;;;;;5037808;23;20131;-47
2022/04/09 00:06:16;;;;;;;5.32;1.42;;;22.40;75.80;;;;;;5045596;23;20029;-48
2022/04/09 00:08:18;;;;;;;2.75;1.10;;;22.40;75.90;;;;;;5037579;23;20037;-50
2022/04/09 00:10:20;;;;;;;3.90;1.40;;;22.40;75.90;;;;;;5044324;23;20029;-47
2022/04/09 00:12:23;;;;;;;2.38;1.27;;;22.40;75.90;;;;;;5048461;23;20045;-46
2022/04/09 00:14:25;;;;;;;4.03;1.50;;;22.40;76.00;;;;;;5043835;23;20948;-47
2022/04/09 00:16:27;;;;;;;4.38;1.38;;;22.50;76.00;;;;;;5013708;23;20145;-52
2022/04/09 00:18:29;;;;;;;2.28;1.42;;;22.40;75.90;;;;;;5042280;23;20103;-48
2022/04/09 00:20:31;;;;;;;2.35;1.27;;;22.40;76.00;;;;;;5049127;23;20025;-47
2022/04/09 00:22:33;;;;;;;4.70;1.52;;;22.50;76.10;;;;;;5043986;23;20033;-51
2022/04/09 00:24:35;;;;;;;3.63;1.38;;;22.40;76.00;;;;;;5016527;23;20060;-53
2022/04/09 00:26:37;;;;;;;3.00;1.40;;;22.50;76.10;;;;;;5051318;23;20060;-49
2022/04/09 00:28:39;;;;;;;2.33;1.23;;;22.40;76.10;;;;;;5019728;23;20280;-44
2022/04/09 00:30:42;;;;;;;3.92;1.40;;;22.40;76.10;;;;;;5044321;23;20044;-45
2022/04/09 00:32:44;;;;;;;5.23;1.90;;;22.40;76.10;;;;;;5050969;23;20064;-49
2022/04/09 00:34:46;;;;;;;3.28;1.65;;;22.40;76.10;;;;;;5048606;23;20045;-45
2022/04/09 00:36:48;;;;;;;4.50;1.65;;;22.40;76.10;;;;;;5050413;23;20017;-48
2022/04/09 00:38:51;;;;;;;2.45;1.38;;;22.40;76.20;;;;;;5054683;23;20033;-48
2022/04/09 00:40:53;;;;;;;6.15;1.88;;;22.40;76.20;;;;;;5058248;23;20049;-49
2022/04/09 00:42:55;;;;;;;4.20;1.97;;;22.40;76.30;;;;;;5054044;23;20021;-44
2022/04/09 00:44:58;;;;;;;4.60;1.88;;;22.40;76.30;;;;;;5024041;23;20924;-45
2022/04/09 00:47:00;;;;;;;5.13;1.83;;;22.40;76.30;;;;;;5056155;23;20487;-46
2022/04/09 00:49:02;;;;;;;3.50;1.60;;;22.40;76.40;;;;;;5016556;23;20044;-48
2022/04/09 00:51:05;;;;;;;3.15;1.38;;;22.50;76.50;;;;;;5038536;23;20065;-46
2022/04/09 00:53:09;;;;;;;3.42;1.70;;;22.40;76.50;;;;;;5037622;23;20052;-45
2022/04/09 00:55:12;;;;;;;5.22;1.55;;;22.40;76.50;;;;;;5020340;23;20030;-46
2022/04/09 00:57:15;;;;;;;4.25;1.67;;;22.40;76.60;;;;;;5039055;23;20389;-49
2022/04/09 00:59:21;;;;;;;3.40;1.65;;;22.50;76.60;;;;;;5037691;23;20036;-47
2022/04/09 01:01:32;;;;;;;2.58;1.45;;;22.40;76.50;;;;;;5023587;23;20029;-46
2022/04/09 01:03:36;;;;;;;2.90;1.40;;;22.50;76.70;;;;;;5004214;23;20257;-47
2022/04/09 01:05:41;;;;;;;3.67;1.63;;;22.50;76.70;;;;;;5046372;23;20923;-50
2022/04/09 01:07:44;;;;;;;4.07;1.75;;;22.50;76.70;;;;;;5044063;23;20443;-46
2022/04/09 01:09:46;;;;;;;7.40;2.65;;;22.50;76.70;;;;;;5038967;23;20818;-45
2022/04/09 01:11:49;;;;;;;4.30;1.52;;;22.50;76.70;;;;;;5011016;23;20034;-48
2022/04/09 01:13:53;;;;;;;2.90;1.42;;;22.50;76.70;;;;;;5044131;23;20025;-45
2022/04/09 01:15:55;;;;;;;2.80;1.90;;;22.50;76.70;;;;;;5043058;23;20583;-49
2022/04/09 01:18:00;;;;;;;3.80;1.75;;;22.50;76.70;;;;;;5011164;23;20036;-46
2022/04/09 01:20:18;;;;;;;2.88;1.20;;;22.50;76.60;;;;;;5038933;23;20104;-47
2022/04/09 01:22:20;;;;;;;4.38;1.48;;;22.50;76.60;;;;;;5038614;23;20551;-53
2022/04/09 01:24:23;;;;;;;3.58;1.60;;;22.50;76.60;;;;;;5041711;23;20075;-47
2022/04/09 01:26:25;;;;;;;3.85;1.77;;;22.50;76.60;;;;;;5019130;23;20106;-45
2022/04/09 01:28:27;;;;;;;4.28;1.70;;;22.50;76.60;;;;;;5016021;23;20034;-46
2022/04/09 01:30:30;;;;;;;3.25;1.77;;;22.50;76.60;;;;;;5040399;23;20056;-45
2022/04/09 01:32:32;;;;;;;3.92;1.70;;;22.60;76.60;;;;;;5020167;23;20364;-45
2022/04/09 01:34:34;;;;;;;2.08;1.25;;;22.60;76.60;;;;;;5045809;23;20890;-50
2022/04/09 01:36:37;;;;;;;3.60;1.60;;;22.60;76.60;;;;;;5039912;23;20115;-46
2022/04/09 01:38:39;;;;;;;2.38;1.30;;;22.60;76.60;;;;;;5041913;23;20077;-50
2022/04/09 01:40:42;;;;;;;2.15;1.02;;;22.60;76.60;;;;;;5047080;23;20100;-48
2022/04/09 01:42:44;;;;;;;5.43;1.42;;;22.60;76.00;;;;;;5040790;23;20414;-47
2022/04/09 01:44:46;;;;;;;2.95;1.58;;;22.60;76.50;;;;;;5043338;23;20857;-48
2022/04/09 01:46:49;;;;;;;1.90;0.80;;;22.60;76.50;;;;;;5021677;23;20033;-52
2022/04/09 01:48:54;;;;;;;4.43;1.70;;;22.60;76.50;;;;;;5045572;23;20281;-46
2022/04/09 01:50:56;;;;;;;2.92;1.23;;;22.60;76.60;;;;;;5042945;23;20484;-51
2022/04/09 01:52:59;;;;;;;2.28;1.15;;;22.70;76.60;;;;;;5041802;23;20029;-52
2022/04/09 01:55:01;;;;;;;4.45;1.25;;;22.60;76.50;;;;;;5025624;23;20121;-45
2022/04/09 01:57:03;;;;;;;3.60;1.40;;;22.60;76.60;;;;;;5018523;23;20572;-47
2022/04/09 01:59:06;;;;;;;3.50;1.10;;;22.60;76.60;;;;;;5047643;23;20394;-48
2022/04/09 02:01:08;;;;;;;2.22;1.30;;;22.70;76.70;;;;;;5055294;23;20056;-44
2022/04/09 02:03:10;;;;;;;2.63;1.40;;;22.60;76.60;;;;;;5054405;23;20037;-49
2022/04/09 02:05:14;;;;;;;4.05;1.52;;;22.70;76.70;;;;;;5047932;23;20033;-45
2022/04/09 02:07:17;;;;;;;2.50;1.08;;;22.70;76.60;;;;;;5049750;23;20104;-51
2022/04/09 02:09:19;;;;;;;2.13;1.08;;;22.70;76.70;;;;;;5055927;23;20046;-44
2022/04/09 02:11:23;;;;;;;3.70;1.30;;;22.70;76.60;;;;;;5049349;23;20026;-48
2022/04/09 02:13:25;;;;;;;3.42;1.17;;;22.70;76.70;;;;;;5056578;23;20484;-56
2022/04/09 02:15:27;;;;;;;2.42;0.98;;;22.70;76.60;;;;;;5065550;23;20025;-48
2022/04/09 02:17:29;;;;;;;4.20;1.17;;;22.70;76.60;;;;;;5057147;23;20018;-47
2022/04/09 02:19:31;;;;;;;2.15;0.95;;;22.70;76.60;;;;;;5058906;23;20033;-49
2022/04/09 02:21:34;;;;;;;2.17;1.30;;;22.70;76.60;;;;;;5059875;23;20022;-45
2022/04/09 02:23:37;;;;;;;2.30;1.10;;;22.70;76.60;;;;;;5024729;23;20030;-55
2022/04/09 02:25:39;;;;;;;2.45;1.13;;;22.70;76.60;;;;;;5054853;23;20084;-47
2022/04/09 02:27:41;;;;;;;2.05;0.98;;;22.70;76.60;;;;;;5026710;23;20026;-50
2022/04/09 02:29:45;;;;;;;3.20;1.08;;;22.70;76.60;;;;;;5051047;23;20027;-49
2022/04/09 02:31:47;;;;;;;2.72;1.00;;;22.70;76.50;;;;;;5021274;23;20026;-49
2022/04/09 02:33:49;;;;;;;2.40;1.00;;;22.70;76.50;;;;;;5018643;23;20026;-50
2022/04/09 02:35:51;;;;;;;2.35;1.00;;;22.70;75.90;;;;;;5037337;23;20815;-48
2022/04/09 02:37:53;;;;;;;4.07;1.50;;;22.80;76.50;;;;;;5043362;23;20144;-48
2022/04/09 02:39:55;;;;;;;2.57;1.00;;;22.80;76.50;;;;;;5017421;23;20499;-47
2022/04/09 02:41:57;;;;;;;2.25;1.30;;;22.80;76.50;;;;;;5039307;23;20026;-50
2022/04/09 02:44:00;;;;;;;2.78;1.17;;;22.80;76.40;;;;;;5042245;23;20261;-46
2022/04/09 02:46:02;;;;;;;1.43;0.90;;;22.80;76.40;;;;;;5045347;23;20040;-46
2022/04/09 02:48:05;;;;;;;2.42;0.93;;;22.80;76.40;;;;;;5039253;23;20980;-45
2022/04/09 02:50:08;;;;;;;2.40;0.98;;;22.80;76.50;;;;;;5040126;23;20422;-44
2022/04/09 02:52:10;;;;;;;1.15;0.68;;;22.80;76.40;;;;;;5043976;23;20112;-46
2022/04/09 02:54:16;;;;;;;2.00;1.00;;;22.80;76.40;;;;;;5012184;23;20026;-45
2022/04/09 02:56:19;;;;;;;2.05;0.80;;;22.80;76.50;;;;;;5039768;23;20126;-50
2022/04/09 02:58:21;;;;;;;3.17;1.20;;;22.80;76.50;;;;;;5039786;23;20108;-46
2022/04/09 03:00:23;;;;;;;1.23;0.77;;;22.80;77.10;;;;;;5017525;23;20723;-44
2022/04/09 03:02:25;;;;;;;2.42;0.80;;;22.80;76.50;;;;;;5041076;23;20026;-49
2022/04/09 03:04:27;;;;;;;2.47;0.93;;;22.80;76.50;;;;;;5038251;23;20033;-49
2022/04/09 03:06:29;;;;;;;1.27;0.75;;;22.80;76.50;;;;;;5012267;23;20084;-48
2022/04/09 03:08:34;;;;;;;2.25;0.77;;;22.80;76.50;;;;;;5042323;23;20030;-46
2022/04/09 03:10:36;;;;;;;1.38;0.90;;;22.80;76.50;;;;;;5037871;23;20026;-52
2022/04/09 03:12:43;;;;;;;1.92;0.98;;;22.80;76.50;;;;;;5036060;23;21006;-49
2022/04/09 03:14:46;;;;;;;3.67;0.75;;;22.80;77.00;;;;;;5035733;23;20021;-49
2022/04/09 03:16:48;;;;;;;1.50;0.77;;;22.80;76.50;;;;;;5042845;23;20029;-45
2022/04/09 03:18:50;;;;;;;2.05;0.93;;;22.80;76.50;;;;;;5010771;23;21233;-46
2022/04/09 03:20:52;;;;;;;2.70;1.10;;;22.90;76.50;;;;;;5037253;23;20112;-52
2022/04/09 03:22:55;;;;;;;2.33;1.00;;;22.90;76.50;;;;;;5014630;23;20037;-46
2022/04/09 03:25:00;;;;;;;3.00;0.93;;;22.90;76.50;;;;;;5016203;23;20034;-47
2022/04/09 03:27:02;;;;;;;3.28;0.98;;;22.90;76.50;;;;;;5035582;23;20325;-51
2022/04/09 03:29:04;;;;;;;1.80;0.90;;;22.90;76.50;;;;;;5036228;23;20037;-47
2022/04/09 03:31:09;;;;;;;1.83;0.98;;;22.90;76.50;;;;;;5041146;23;20648;-54
2022/04/09 03:33:11;;;;;;;2.28;0.60;;;22.90;76.50;;;;;;5043635;23;20446;-50
2022/04/09 03:35:14;;;;;;;3.28;1.00;;;22.90;76.40;;;;;;5037541;23;20498;-48
2022/04/09 03:37:22;;;;;;;1.40;0.73;;;22.90;76.40;;;;;;4985167;23;20030;-46
2022/04/09 03:39:28;;;;;;;1.98;0.93;;;22.90;76.30;;;;;;5009788;23;20030;-51
2022/04/09 03:41:33;;;;;;;1.00;0.73;;;22.90;76.30;;;;;;4994238;23;20062;-51
2022/04/09 03:43:35;;;;;;;2.27;1.00;;;23.00;76.30;;;;;;5039970;23;20227;-50
2022/04/09 03:45:37;;;;;;;1.60;0.75;;;23.00;76.20;;;;;;5036323;23;20036;-53
2022/04/09 03:47:45;;;;;;;1.60;0.80;;;23.00;76.90;;;;;;5039020;23;20061;-52
2022/04/09 03:49:48;;;;;;;1.42;0.70;;;23.00;76.10;;;;;;5016359;23;20037;-51
2022/04/09 03:51:50;;;;;;;2.17;0.75;;;23.10;76.10;;;;;;5016140;23;20026;-51
2022/04/09 03:53:52;;;;;;;2.58;0.68;;;23.10;76.00;;;;;;5037523;23;20429;-54
2022/04/09 03:55:54;;;;;;;3.00;0.80;;;23.10;76.00;;;;;;5037941;23;20029;-48
2022/04/09 03:57:57;;;;;;;0.90;0.43;;;23.10;75.90;;;;;;5044952;23;20040;-49
2022/04/09 03:59:59;;;;;;;;;;;23.20;75.90;;;;;;5040901;23;20788;-51
2022/04/09 04:02:01;;;;;;;1.25;0.70;;;23.20;75.80;;;;;;5037072;23;20090;-50
2022/04/09 04:04:05;;;;;;;1.10;0.60;;;23.20;75.70;;;;;;5015151;23;20044;-51
2022/04/09 04:06:10;;;;;;;2.42;0.85;;;23.20;75.70;;;;;;5044814;23;20148;-48
2022/04/09 04:08:13;;;;;;;0.70;0.50;;;23.20;75.60;;;;;;5039308;23;20463;-51
2022/04/09 04:10:15;;;;;;;0.73;0.50;;;23.30;75.70;;;;;;5038389;23;20025;-53
2022/04/09 04:12:17;;;;;;;1.58;0.60;;;23.30;75.60;;;;;;5016555;23;20649;-47
2022/04/09 04:14:19;;;;;;;2.30;0.88;;;23.30;75.50;;;;;;5017331;23;20100;-48
2022/04/09 04:16:21;;;;;;;1.33;0.50;;;23.40;75.50;;;;;;5038157;23;20099;-44
2022/04/09 04:18:23;;;;;;;0.70;0.50;;;23.30;75.40;;;;;;5013905;23;20030;-45
2022/04/09 04:20:25;;;;;;;0.98;0.55;;;23.40;75.40;;;;;;5043595;23;20030;-48
2022/04/09 04:22:28;;;;;;;1.93;0.70;;;23.40;75.30;;;;;;5038543;23;20089;-49
2022/04/09 04:24:30;;;;;;;1.53;0.60;;;23.40;75.30;;;;;;5039101;23;20022;-46
2022/04/09 04:26:32;;;;;;;1.42;0.60;;;23.50;75.20;;;;;;5022315;23;20029;-49
2022/04/09 04:28:34;;;;;;;4.20;1.30;;;23.50;75.20;;;;;;5015267;23;20033;-51
2022/04/09 04:30:36;;;;;;;1.58;0.70;;;23.50;75.10;;;;;;5042269;23;20060;-50
2022/04/09 04:32:42;;;;;;;4.07;1.23;;;23.50;75.20;;;;;;4992376;23;20860;-48
2022/04/09 04:34:44;;;;;;;1.67;0.80;;;23.50;75.10;;;;;;5021758;23;20034;-47
2022/04/09 04:36:46;;;;;;;2.22;0.82;;;23.60;75.10;;;;;;5041240;23;20088;-49
2022/04/09 04:38:49;;;;;;;1.92;0.77;;;23.60;75.00;;;;;;5011452;23;20771;-49
2022/04/09 04:40:51;;;;;;;1.20;0.80;;;23.60;74.50;;;;;;5046185;23;20518;-51
2022/04/09 04:42:53;;;;;;;1.43;0.70;;;23.60;75.00;;;;;;5044032;23;21108;-50
2022/04/09 04:44:55;;;;;;;1.55;0.80;;;23.60;75.00;;;;;;5041176;23;20270;-48
2022/04/09 04:46:57;;;;;;;2.13;0.82;;;23.70;74.90;;;;;;5039338;23;20041;-52
2022/04/09 04:49:00;;;;;;;1.50;0.68;;;23.70;74.90;;;;;;5022562;23;20856;-46
2022/04/09 04:51:02;;;;;;;2.42;0.70;;;23.80;74.90;;;;;;5038951;23;20088;-47
2022/04/09 04:53:04;;;;;;;3.10;1.10;;;23.80;74.80;;;;;;5039536;23;20155;-50
2022/04/09 04:55:07;;;;;;;2.38;1.08;;;23.90;74.70;;;;;;5021444;23;20030;-48
2022/04/09 04:57:10;;;;;;;2.25;0.95;;;23.90;74.50;;;;;;5015704;23;20027;-45
2022/04/09 04:59:15;;;;;;;2.00;0.77;;;24.00;74.50;;;;;;4992433;23;20529;-47
2022/04/09 05:01:17;;;;;;;1.87;0.87;;;24.00;74.40;;;;;;5036829;23;20508;-50
2022/04/09 05:03:19;;;;;;;3.10;0.90;;;24.00;74.40;;;;;;5012554;23;20022;-46
2022/04/09 05:05:21;;;;;;;0.82;0.47;;;24.10;74.20;;;;;;5014322;23;20699;-47
2022/04/09 05:07:24;;;;;;;2.80;0.93;;;24.10;74.20;;;;;;5012796;23;20030;-47
2022/04/09 05:09:26;;;;;;;2.80;0.93;;;24.10;74.10;;;;;;5041707;23;20068;-46
2022/04/09 05:11:28;;;;;;;1.85;0.80;;;24.20;74.10;;;;;;5047910;23;20026;-49
2022/04/09 05:13:30;;;;;;;2.08;0.82;;;24.10;74.00;;;;;;5040331;23;20029;-49
2022/04/09 05:15:32;;;;;;;2.70;1.00;;;24.10;74.00;;;;;;5042400;23;20495;-47
2022/04/09 05:17:34;;;;;;;1.75;0.77;;;24.20;73.60;;;;;;5050305;23;20579;-50
2022/04/09 05:19:37;;;;;;;1.07;0.63;;;24.20;74.00;;;;;;5044809;23;20025;-52
2022/04/09 05:21:39;;;;;;;1.92;0.75;;;24.20;74.00;;;;;;5045435;23;20033;-47
2022/04/09 05:23:41;;;;;;;1.35;0.57;;;24.20;74.00;;;;;;5044539;23;20345;-50
2022/04/09 05:25:43;;;;;;;1.67;0.70;;;24.20;74.00;;;;;;5020314;23;20060;-46
2022/04/09 05:27:45;;;;;;;1.88;0.82;;;24.20;73.90;;;;;;5043923;23;20114;-49
2022/04/09 05:29:48;;;;;;;3.10;0.80;;;24.20;73.90;;;;;;5042458;23;20076;-51
2022/04/09 05:31:50;;;;;;;2.60;0.90;;;24.10;73.30;;;;;;5051243;23;20092;-47
2022/04/09 05:33:52;;;;;;;1.80;0.90;;;24.10;73.80;;;;;;5045166;23;20263;-44
2022/04/09 05:35:55;;;;;;;2.30;0.73;;;24.20;73.90;;;;;;5039787;23;20030;-48
2022/04/09 05:37:57;;;;;;;2.53;1.25;;;24.20;73.80;;;;;;5043876;23;20128;-50
2022/04/09 05:39:59;;;;;;;1.48;0.88;;;24.20;73.80;;;;;;5021692;23;20316;-48
2022/04/09 05:42:01;;;;;;;2.00;0.70;;;24.20;73.80;;;;;;5043901;23;20931;-47
2022/04/09 05:44:04;;;;;;;1.48;0.88;;;24.20;73.80;;;;;;5043600;23;20140;-51
2022/04/09 05:46:06;;;;;;;1.02;0.50;;;24.20;73.70;;;;;;5021673;23;20074;-50
2022/04/09 05:48:08;;;;;;;0.82;0.65;;;24.20;73.70;;;;;;5017651;23;20025;-53
2022/04/09 05:50:13;;;;;;;2.33;0.70;;;24.20;73.60;;;;;;5042862;23;20429;-47
2022/04/09 05:52:15;;;;;;;2.05;0.60;;;24.20;73.70;;;;;;5043912;23;20803;-53
2022/04/09 05:54:17;;;;;;;2.30;0.80;;;24.20;73.50;;;;;;5048667;23;20036;-45
2022/04/09 05:56:19;;;;;;;1.08;0.40;;;24.20;73.50;;;;;;5043108;23;20026;-47
2022/04/09 05:58:21;;;;;;;1.63;0.80;;;24.30;73.50;;;;;;5014568;23;20057;-50
2022/04/09 06:00:24;;;;;;;2.58;0.80;;;24.30;73.50;;;;;;5046886;23;20052;-51
2022/04/09 06:02:26;;;;;;;1.80;0.63;;;24.30;73.50;;;;;;5017226;23;20389;-51
2022/04/09 06:04:28;;;;;;;1.42;0.77;;;24.30;73.50;;;;;;5038628;23;20268;-47
2022/04/09 06:06:30;;;;;;;1.70;0.63;;;24.30;73.50;;;;;;5040729;23;20026;-45
2022/04/09 06:08:33;;;;;;;1.42;0.60;;;24.20;73.50;;;;;;5045651;23;20120;-47
2022/04/09 06:10:35;;;;;;;2.90;0.90;;;24.20;73.50;;;;;;5040108;23;20686;-50
2022/04/09 06:12:37;;;;;;;1.55;0.65;;;24.30;73.60;;;;;;5042198;23;20645;-49
2022/04/09 06:14:40;;;;;;;1.70;0.70;;;24.30;73.50;;;;;;5024253;23;20120;-50
2022/04/09 06:16:43;;;;;;;1.15;0.60;;;24.30;73.50;;;;;;5044309;23;20328;-49
2022/04/09 06:18:45;;;;;;;1.40;0.90;;;24.40;73.40;;;;;;5043437;23;20112;-50
2022/04/09 06:20:48;;;;;;;2.55;1.00;;;24.40;73.40;;;;;;5048982;23;20026;-48
2022/04/09 06:22:50;;;;;;;3.00;1.00;;;24.40;73.40;;;;;;5051782;23;20515;-53
2022/04/09 06:24:52;;;;;;;2.10;0.70;;;24.40;73.30;;;;;;5049078;23;20025;-53
2022/04/09 06:26:54;;;;;;;1.77;0.90;;;24.40;73.20;;;;;;5024898;23;20081;-52
2022/04/09 06:28:57;;;;;;;1.55;0.70;;;24.40;73.30;;;;;;5056003;23;20076;-52
2022/04/09 06:30:59;;;;;;;2.00;0.98;;;24.40;73.20;;;;;;5053399;23;20099;-50
2022/04/09 06:33:01;;;;;;;1.45;0.68;;;24.40;73.10;;;;;;5049791;23;20080;-47
2022/04/09 06:35:03;;;;;;;2.88;0.73;;;24.40;73.10;;;;;;5052619;23;20040;-48
2022/04/09 06:37:05;;;;;;;1.80;0.77;;;24.40;73.00;;;;;;5054633;23;20511;-45
2022/04/09 06:39:08;;;;;;;2.38;0.98;;;24.40;73.00;;;;;;5030663;23;20052;-47
2022/04/09 06:41:10;;;;;;;2.00;0.90;;;24.40;73.00;;;;;;5038766;23;20053;-49
2022/04/09 06:43:12;;;;;;;1.35;0.70;;;24.40;73.00;;;;;;5062415;23;20099;-49
2022/04/09 06:45:15;;;;;;;1.70;0.80;;;24.40;72.90;;;;;;5057872;23;20029;-51
2022/04/09 06:47:17;;;;;;;1.70;1.08;;;24.50;73.00;;;;;;5057965;23;20029;-50
2022/04/09 06:49:19;;;;;;;2.05;1.08;;;24.50;73.00;;;;;;5047811;23;20790;-46
2022/04/09 06:51:22;;;;;;;2.35;1.00;;;24.50;72.90;;;;;;5048963;23;20120;-45
2022/04/09 06:53:24;;;;;;;2.38;1.00;;;24.50;72.80;;;;;;5052123;23;20084;-50
2022/04/09 06:55:27;;;;;;;2.25;1.00;;;24.60;72.70;;;;;;4999261;23;20528;-45
2022/04/09 06:57:29;;;;;;;1.58;0.80;;;24.50;72.60;;;;;;5047000;23;20048;-51
2022/04/09 06:59:31;;;;;;;1.85;0.80;;;24.50;72.70;;;;;;5039254;23;20025;-46
2022/04/09 07:01:33;;;;;;;2.42;1.00;;;24.50;72.70;;;;;;5037648;23;20609;-48
2022/04/09 07:03:35;;;;;;;1.77;1.00;;;24.50;72.70;;;;;;5044322;23;20033;-52
2022/04/09 07:05:37;;;;;;;3.33;1.30;;;24.40;72.60;;;;;;5039817;23;20025;-50
2022/04/09 07:07:40;;;;;;;2.33;0.77;;;24.40;72.70;;;;;;5033999;23;20032;-47
2022/04/09 07:09:43;;;;;;;2.03;0.93;;;24.40;72.60;;;;;;5011257;23;20110;-47
2022/04/09 07:11:45;;;;;;;2.75;1.33;;;24.40;72.70;;;;;;5042374;23;20176;-50
2022/04/09 07:13:47;;;;;;;3.80;1.17;;;24.40;72.70;;;;;;5011162;23;20422;-48
2022/04/09 07:15:49;;;;;;;1.75;0.93;;;24.40;72.60;;;;;;5035460;23;20262;-48
2022/04/09 07:17:51;;;;;;;2.05;0.88;;;24.40;72.60;;;;;;5043225;23;20087;-50
2022/04/09 07:20:07;;;;;;;2.75;1.17;;;24.40;72.60;;;;;;5040082;23;20911;-46
2022/04/09 07:22:10;;;;;;;2.78;0.88;;;24.40;72.60;;;;;;5045592;23;20116;-52
2022/04/09 07:24:12;;;;;;;1.17;0.80;;;24.40;72.60;;;;;;5009994;23;20119;-45
2022/04/09 07:26:18;;;;;;;2.47;0.90;;;24.30;72.60;;;;;;5039938;23;20551;-52
2022/04/09 14:11:58;;;;;;;1.20;0.98;;;22.80;75.00;;;;;;4986913;23;20437;-60
2022/04/09 14:14:02;;;;;;;1.30;0.75;;;22.80;75.10;;;;;;5055423;23;20029;-61
2022/04/09 14:16:05;;;;;;;1.85;0.90;;;22.70;75.00;;;;;;5086704;23;20036;-61
2022/04/09 14:18:08;;;;;;;1.02;0.75;;;22.70;75.00;;;;;;5081134;23;20029;-63
2022/04/09 14:20:11;;;;;;;11.73;1.05;;;22.70;75.00;;;;;;5082696;23;20407;-62
2022/04/09 14:22:13;;;;;;;5.53;0.97;;;22.70;75.20;;;;;;5060882;23;20389;-61
2022/04/09 14:24:16;;;;;;;1.27;0.77;;;22.80;75.30;;;;;;5055423;23;20482;-61
2022/04/09 14:26:18;;;;;;;1.92;0.77;;;22.70;75.40;;;;;;5081736;23;20025;-59
2022/04/09 14:28:24;;;;;;;4.68;1.05;;;22.70;75.50;;;;;;5083572;23;20403;-60
2022/04/09 14:30:27;;;;;;;21.55;1.13;;;22.80;75.60;;;;;;5086372;23;20048;-61
2022/04/09 14:32:29;;;;;;;;;;;22.80;75.60;;;;;;5077006;23;20440;-61
2022/04/09 14:34:31;;;;;;;4.85;0.65;;;22.80;75.70;;;;;;5070925;23;19931;-62
2022/04/09 14:36:33;;;;;;;2.45;0.70;;;22.80;75.60;;;;;;5082160;23;20033;-58
2022/04/09 14:38:35;;;;;;;3.70;1.08;;;22.90;75.80;;;;;;5082682;23;20025;-61
2022/04/09 14:40:37;;;;;;;3.25;0.50;;;22.90;75.80;;;;;;5076162;23;20127;-61
2022/04/09 14:42:40;;;;;;;3.35;0.47;;;22.90;75.80;;;;;;5071263;23;20079;-62
2022/04/09 14:44:42;;;;;;;1.15;0.85;;;22.90;75.80;;;;;;5050933;23;20444;-59
2022/04/09 14:46:44;;;;;;;9.52;1.00;;;22.90;75.80;;;;;;5072477;23;20040;-60
2022/04/09 14:48:46;;;;;;;1.35;0.60;;;22.90;75.50;;;;;;5048575;23;20164;-60
2022/04/09 14:50:51;;;;;;;6.43;1.23;;;22.90;75.60;;;;;;5078134;23;20119;-60
2022/04/09 14:52:54;;;;;;;2.88;0.90;;;22.90;75.90;;;;;;5076313;23;20305;-59
2022/04/09 14:54:56;;;;;;;8.10;1.10;;;23.00;76.20;;;;;;5045419;23;20067;-61
2022/04/09 14:56:58;;;;;;;7.28;1.20;;;23.00;76.30;;;;;;5074442;23;20040;-60
2022/04/09 14:59:02;;;;;;;3.53;0.88;;;23.00;76.30;;;;;;5079847;23;20037;-61
2022/04/09 15:01:05;;;;;;;3.53;1.15;;;23.00;76.40;;;;;;5079330;23;20143;-61
2022/04/09 15:03:08;;;;;;;10.60;1.60;;;23.00;76.30;;;;;;5078071;23;20052;-61
2022/04/09 15:05:11;;;;;;;18.83;2.15;;;23.00;76.70;;;;;;5081284;23;20449;-62
2022/04/09 15:07:14;;;;;;;9.95;1.52;;;23.00;76.60;;;;;;5083410;23;20079;-63
2022/04/09 15:09:16;;;;;;;5.82;1.42;;;23.00;76.50;;;;;;5077550;23;20986;-62
2022/04/09 15:11:18;;;;;;;6.90;1.05;;;23.00;76.50;;;;;;5072562;23;20029;-60
2022/04/09 15:13:21;;;;;;;7.57;1.15;;;23.00;76.50;;;;;;5085588;23;20198;-60
2022/04/09 15:15:23;;;;;;;6.57;1.13;;;23.00;76.50;;;;;;5062419;23;20370;-60
2022/04/09 15:17:25;;;;;;;9.90;1.00;;;23.00;76.50;;;;;;5079518;23;20025;-59
2022/04/09 15:19:27;;;;;;;15.48;0.90;;;23.00;76.50;;;;;;5086433;23;20029;-60
2022/04/09 15:21:30;;;;;;;4.65;1.10;;;23.00;76.60;;;;;;5086737;23;20091;-58
2022/04/09 15:23:33;;;;;;;3.55;0.88;;;23.00;76.60;;;;;;5082694;23;20623;-60
2022/04/09 15:25:35;;;;;;;25.02;1.67;;;23.00;76.50;;;;;;5079916;23;20129;-60
2022/04/09 15:27:38;;;;;;;6.38;1.20;;;23.00;76.70;;;;;;5073990;23;20087;-61
2022/04/09 15:29:43;;;;;;;11.15;0.85;;;23.00;76.70;;;;;;5075658;23;20033;-61
2022/04/09 15:31:46;;;;;;;4.25;0.98;;;23.00;76.70;;;;;;5071694;23;20052;-61
2022/04/09 15:33:48;;;;;;;6.43;0.93;;;23.00;76.60;;;;;;5070284;23;20029;-59
2022/04/09 15:35:50;;;;;;;4.57;0.87;;;23.00;76.50;;;;;;5046999;23;20029;-59
2022/04/09 15:37:55;;;;;;;3.93;0.80;;;23.00;76.50;;;;;;5079659;23;20029;-60
2022/04/09 15:39:58;;;;;;;6.93;1.20;;;23.10;76.60;;;;;;5076278;23;20916;-58
2022/04/09 15:42:01;;;;;;;3.28;0.80;;;23.10;76.50;;;;;;5071348;23;20120;-59
2022/04/09 15:44:06;;;;;;;7.28;0.90;;;23.10;76.40;;;;;;5073943;23;20444;-62
2022/04/09 15:46:08;;;;;;;3.42;0.80;;;23.10;76.30;;;;;;5080123;23;20039;-59
2022/04/09 15:48:11;;;;;;;2.22;0.80;;;23.10;76.40;;;;;;5073849;23;20103;-59
2022/04/09 15:50:13;;;;;;;2.80;0.80;;;23.10;76.30;;;;;;5072228;23;20029;-60
2022/04/09 15:52:15;;;;;;;5.32;1.17;;;23.10;76.30;;;;;;5077189;23;20197;-60
2022/04/09 15:54:18;;;;;;;5.33;0.90;;;23.10;76.40;;;;;;5027938;23;20160;-60
2022/04/09 15:56:22;;;;;;;6.07;1.05;;;23.10;76.30;;;;;;5074554;23;20049;-58
2022/04/09 15:58:24;;;;;;;3.13;0.50;;;23.10;76.30;;;;;;5075183;23;20834;-59
2022/04/09 16:00:26;;;;;;;9.48;1.02;;;23.10;76.30;;;;;;5079182;23;20028;-62
2022/04/09 16:02:34;;;;;;;14.85;1.48;;;23.10;76.40;;;;;;5062484;23;20029;-60
2022/04/09 16:04:36;;;;;;;30.38;2.10;;;23.10;76.50;;;;;;5042841;23;20122;-60
2022/04/09 16:06:39;;;;;;;9.40;1.20;;;23.10;76.60;;;;;;5069336;23;20079;-60
2022/04/09 16:08:41;;;;;;;4.82;1.00;;;23.10;76.60;;;;;;5051280;23;20369;-61
2022/04/09 16:10:43;;;;;;;12.25;1.63;;;23.10;76.50;;;;;;5071165;23;20380;-61
2022/04/09 16:12:46;;;;;;;6.18;1.35;;;23.10;76.40;;;;;;5072364;23;20035;-62
2022/04/09 16:14:48;;;;;;;10.27;1.40;;;23.10;76.40;;;;;;5076879;23;20029;-62
2022/04/09 16:16:50;;;;;;;4.40;1.15;;;23.10;76.30;;;;;;5079929;23;20295;-62
2022/04/09 16:18:52;;;;;;;8.38;0.70;;;23.10;76.30;;;;;;5074296;23;20193;-59
2022/04/09 16:20:54;;;;;;;4.82;1.73;;;23.10;76.30;;;;;;5050252;23;20047;-60
2022/04/09 16:23:00;;;;;;;2.22;0.55;;;23.10;76.30;;;;;;5079839;23;20036;-59
2022/04/09 16:25:04;;;;;;;5.18;1.02;;;23.00;76.20;;;;;;5050067;23;20579;-59
2022/04/09 16:27:06;;;;;;;4.82;0.82;;;23.00;76.20;;;;;;5072975;23;20036;-59
2022/04/09 16:29:08;;;;;;;5.07;0.93;;;23.00;76.20;;;;;;5073996;23;20452;-60
2022/04/09 16:31:11;;;;;;;1.58;0.80;;;23.00;76.20;;;;;;5081376;23;20029;-60
2022/04/09 16:33:13;;;;;;;0.93;0.45;;;23.00;76.20;;;;;;5077582;23;20784;-59
2022/04/09 16:35:15;;;;;;;3.17;0.77;;;23.00;76.20;;;;;;5072636;23;20337;-59
2022/04/09 16:37:18;;;;;;;1.58;0.70;;;23.00;76.20;;;;;;5076439;23;20025;-59
2022/04/09 16:39:21;;;;;;;13.93;1.38;;;23.00;76.80;;;;;;5080218;23;20025;-62
2022/04/09 16:41:23;;;;;;;2.72;1.00;;;23.00;76.30;;;;;;5075351;23;20680;-61
2022/04/09 16:43:26;;;;;;;5.15;0.90;;;23.00;76.30;;;;;;5072821;23;20107;-59
2022/04/09 16:45:28;;;;;;;4.93;1.05;;;22.90;76.40;;;;;;5079331;23;20056;-60
2022/04/09 16:47:31;;;;;;;4.30;0.60;;;22.90;76.40;;;;;;5078218;23;20029;-60
2022/04/09 16:49:33;;;;;;;3.53;1.00;;;22.90;76.30;;;;;;5076175;23;20091;-60
2022/04/09 16:51:35;;;;;;;4.15;0.80;;;22.90;76.30;;;;;;5073734;23;20029;-59
2022/04/09 16:53:37;;;;;;;2.13;0.65;;;22.90;76.20;;;;;;5081990;23;20033;-61
2022/04/09 16:55:40;;;;;;;11.98;1.38;;;22.90;76.30;;;;;;5076533;23;20896;-62
2022/04/09 16:57:42;;;;;;;4.88;0.80;;;22.90;76.50;;;;;;5074426;23;20033;-61
2022/04/09 16:59:45;;;;;;;2.47;0.85;;;22.90;76.50;;;;;;5076395;23;20033;-60
2022/04/09 17:01:47;;;;;;;6.27;1.10;;;22.90;76.50;;;;;;5079712;23;20471;-60
2022/04/09 17:03:49;;;;;;;7.82;1.15;;;22.90;76.50;;;;;;5072350;23;20068;-60
2022/04/09 17:05:51;;;;;;;1.65;0.65;;;22.90;76.50;;;;;;5072884;23;20060;-59
2022/04/09 17:07:54;;;;;;;1.40;0.55;;;22.90;76.40;;;;;;5078568;23;20032;-61
2022/04/09 17:09:57;;;;;;;2.00;0.63;;;22.90;76.30;;;;;;5049784;23;20108;-60
2022/04/09 17:11:59;;;;;;;4.43;0.60;;;22.90;76.30;;;;;;5075840;23;20801;-60
2022/04/09 17:14:01;;;;;;;3.30;0.43;;;22.90;76.30;;;;;;5077048;23;20025;-60
2022/04/09 17:16:06;;;;;;;8.10;0.85;;;22.90;76.30;;;;;;5053406;23;20314;-60
2022/04/09 17:18:08;;;;;;;1.45;0.35;;;22.90;76.30;;;;;;5076129;23;20028;-59
2022/04/09 17:20:10;;;;;;;2.72;0.68;;;22.90;76.20;;;;;;5044130;23;20446;-60
2022/04/09 17:22:13;;;;;;;4.55;0.55;;;22.90;76.20;;;;;;5026015;23;20026;-60